Time,TemperatureF,DewpointF,PressureIn,WindDirection,WindDirectionDegrees,WindSpeedMPH,WindSpeedGustMPH,Humidity,HourlyPrecipIn,Conditions,Clouds,dailyrainin,SolarRadiationWatts/m^2,SoftwareType,DateUTC
2013-03-27 00:03:00,36.0,24.6,29.89,West,279,1.0,1.0,63,0.00,,,0.00,32767.00,ALWS 1.0-beta,2013-03-27 04:03:00,
2013-03-27 00:08:00,36.2,24.1,29.88,NW,312,2.0,5.0,61,0.00,,,0.00,32767.00,ALWS 1.0-beta,2013-03-27 04:08:00,
2013-03-27 00:14:00,36.5,24.3,29.88,NW,311,0.0,0.0,61,0.00,,,0.00,32767.00,ALWS 1.0-beta,2013-03-27 04:14:00,
2013-03-27 00:19:00,36.6,24.0,29.89,West,277,5.0,5.0,60,0.00,,,0.00,32767.00,ALWS 1.0-beta,2013-03-27 04:19:00,
2013-03-27 00:24:00,36.8,23.8,29.89,West,277,0.0,0.0,59,0.00,,,0.00,32767.00,ALWS 1.0-beta,2013-03-27 04:24:00,
2013-03-27 00:29:00,36.9,23.9,29.89,WNW,303,0.0,1.0,59,0.00,,,0.00,32767.00,ALWS 1.0-beta,2013-03-27 04:29:00,
2013-03-27 00:34:00,36.9,23.5,29.89,WNW,288,3.0,4.0,58,0.00,,,0.00,32767.00,ALWS 1.0-beta,2013-03-27 04:34:00,
2013-03-27 00:39:00,37.0,23.6,29.89,West,262,0.0,0.0,58,0.00,,,0.00,32767.00,ALWS 1.0-beta,2013-03-27 04:39:00,
2013-03-27 00:44:00,37.1,23.7,29.89,West,269,0.0,0.0,58,0.00,,,0.00,32767.00,ALWS 1.0-beta,2013-03-27 04:44:00,
2013-03-27 00:49:00,37.0,23.6,29.89,WNW,292,0.0,2.0,58,0.00,,,0.00,32767.00,ALWS 1.0-beta,2013-03-27 04:49:00,
2013-03-27 00:54:00,37.0,23.6,29.89,West,269,3.0,4.0,58,0.00,,,0.00,32767.00,ALWS 1.0-beta,2013-03-27 04:54:00,
2013-03-27 00:59:00,37.0,23.6,29.89,WNW,283,2.0,2.0,58,0.00,,,0.00,32767.00,ALWS 1.0-beta,2013-03-27 04:59:00,
2013-03-27 01:04:00,37.0,23.6,29.89,WNW,283,2.0,4.0,58,0.00,,,0.00,32767.00,ALWS 1.0-beta,2013-03-27 05:04:00,
2013-03-27 01:09:00,37.0,23.2,29.89,WNW,282,0.0,0.0,57,0.00,,,0.00,32767.00,ALWS 1.0-beta,2013-03-27 05:09:00,
2013-03-27 01:14:00,36.9,23.1,29.89,WNW,282,6.0,6.0,57,0.00,,,0.00,32767.00,ALWS 1.0-beta,2013-03-27 05:14:00,
2013-03-27 01:19:00,37.0,23.2,29.89,West,272,0.0,0.0,57,0.00,,,0.00,32767.00,ALWS 1.0-beta,2013-03-27 05:19:00,
2013-03-27 01:24:00,36.9,23.1,29.89,West,280,1.0,1.0,57,0.00,,,0.00,32767.00,ALWS 1.0-beta,2013-03-27 05:24:00,
2013-03-27 01:29:00,36.9,23.1,29.89,West,265,1.0,1.0,57,0.00,,,0.00,32767.00,ALWS 1.0-beta,2013-03-27 05:29:00,
2013-03-27 01:34:00,36.9,23.1,29.89,NW,304,0.0,0.0,57,0.00,,,0.00,32767.00,ALWS 1.0-beta,2013-03-27 05:34:00,
2013-03-27 01:39:00,36.9,23.1,29.89,WNW,286,1.0,2.0,57,0.00,,,0.00,32767.00,ALWS 1.0-beta,2013-03-27 05:39:00,
2013-03-27 01:44:00,36.9,23.1,29.89,West,277,0.0,0.0,57,0.00,,,0.00,32767.00,ALWS 1.0-beta,2013-03-27 05:44:00,
2013-03-27 01:49:00,36.8,23.0,29.89,West,271,0.0,6.0,57,0.00,,,0.00,32767.00,ALWS 1.0-beta,2013-03-27 05:49:00,
2013-03-27 01:54:00,36.8,23.0,29.89,NW,310,0.0,4.0,57,0.00,,,0.00,32767.00,ALWS 1.0-beta,2013-03-27 05:54:00,
2013-03-27 01:59:00,36.6,24.4,29.89,West,277,2.0,2.0,61,0.00,,,0.00,32767.00,ALWS 1.0-beta,2013-03-27 05:59:00,
2013-03-27 02:04:00,36.5,23.1,29.90,West,277,2.0,2.0,58,0.00,,,0.00,32767.00,ALWS 1.0-beta,2013-03-27 06:04:00,
2013-03-27 02:09:00,36.4,23.0,29.90,WNW,287,0.0,0.0,58,0.00,,,0.00,32767.00,ALWS 1.0-beta,2013-03-27 06:09:00,
2013-03-27 02:14:00,36.4,23.0,29.90,West,277,5.0,6.0,58,0.00,,,0.00,32767.00,ALWS 1.0-beta,2013-03-27 06:14:00,
2013-03-27 02:19:00,36.3,23.0,29.90,South,180,0.0,1.0,58,0.00,,,0.00,32767.00,ALWS 1.0-beta,2013-03-27 06:19:00,
2013-03-27 02:24:00,36.1,23.2,29.90,SSW,197,1.0,1.0,59,0.00,,,0.00,32767.00,ALWS 1.0-beta,2013-03-27 06:24:00,
2013-03-27 02:29:00,35.9,23.0,29.90,SSW,197,0.0,0.0,59,0.00,,,0.00,32767.00,ALWS 1.0-beta,2013-03-27 06:29:00,
2013-03-27 02:34:00,35.8,22.9,29.90,NW,311,0.0,1.0,59,0.00,,,0.00,32767.00,ALWS 1.0-beta,2013-03-27 06:34:00,
2013-03-27 02:39:00,35.6,23.1,29.90,SSW,203,0.0,0.0,60,0.00,,,0.00,32767.00,ALWS 1.0-beta,2013-03-27 06:39:00,
2013-03-27 02:44:00,35.4,23.3,29.89,SSW,202,0.0,0.0,61,0.00,,,0.00,32767.00,ALWS 1.0-beta,2013-03-27 06:44:00,
2013-03-27 02:49:00,35.0,23.3,29.89,SSW,202,0.0,0.0,62,0.00,,,0.00,32767.00,ALWS 1.0-beta,2013-03-27 06:49:00,
2013-03-27 02:54:00,34.5,23.2,29.89,SSW,202,0.0,0.0,63,0.00,,,0.00,32767.00,ALWS 1.0-beta,2013-03-27 06:54:00,
2013-03-27 02:59:00,34.3,23.0,29.89,SSW,202,0.0,0.0,63,0.00,,,0.00,32767.00,ALWS 1.0-beta,2013-03-27 06:59:00,
2013-03-27 03:04:00,33.9,23.0,29.89,ESE,119,0.0,0.0,64,0.00,,,0.00,32767.00,ALWS 1.0-beta,2013-03-27 07:04:00,
2013-03-27 03:09:00,33.5,22.6,29.89,ESE,119,0.0,0.0,64,0.00,,,0.00,32767.00,ALWS 1.0-beta,2013-03-27 07:09:00,
2013-03-27 03:14:00,33.2,22.7,29.89,ESE,119,0.0,0.0,65,0.00,,,0.00,32767.00,ALWS 1.0-beta,2013-03-27 07:14:00,
2013-03-27 03:19:00,32.9,22.4,29.89,ESE,119,0.0,0.0,65,0.00,,,0.00,32767.00,ALWS 1.0-beta,2013-03-27 07:19:00,
2013-03-27 03:24:00,32.7,22.6,29.89,ESE,119,0.0,0.0,66,0.00,,,0.00,32767.00,ALWS 1.0-beta,2013-03-27 07:24:00,
2013-03-27 03:29:00,32.5,22.8,29.89,ESE,122,0.0,0.0,67,0.00,,,0.00,32767.00,ALWS 1.0-beta,2013-03-27 07:29:00,
2013-03-27 03:34:00,32.3,22.6,29.89,ESE,122,0.0,0.0,67,0.00,,,0.00,32767.00,ALWS 1.0-beta,2013-03-27 07:34:00,
2013-03-27 03:39:00,32.1,22.4,29.89,ESE,122,0.0,0.0,67,0.00,,,0.00,32767.00,ALWS 1.0-beta,2013-03-27 07:39:00,
2013-03-27 03:44:00,31.9,22.2,29.89,ESE,122,0.0,0.0,67,0.00,,,0.00,32767.00,ALWS 1.0-beta,2013-03-27 07:44:00,
2013-03-27 03:49:00,31.7,22.4,29.88,ESE,123,0.0,0.0,68,0.00,,,0.00,32767.00,ALWS 1.0-beta,2013-03-27 07:49:00,
2013-03-27 03:54:00,31.6,22.3,29.88,ESE,121,0.0,0.0,68,0.00,,,0.00,32767.00,ALWS 1.0-beta,2013-03-27 07:54:00,
2013-03-27 03:59:00,31.5,22.2,29.89,ESE,122,0.0,0.0,68,0.00,,,0.00,32767.00,ALWS 1.0-beta,2013-03-27 07:59:00,
2013-03-27 04:04:00,31.5,22.5,29.89,ESE,121,0.0,0.0,69,0.00,,,0.00,32767.00,ALWS 1.0-beta,2013-03-27 08:04:00,
2013-03-27 04:09:00,31.5,22.5,29.89,ESE,121,0.0,0.0,69,0.00,,,0.00,32767.00,ALWS 1.0-beta,2013-03-27 08:09:00,
2013-03-27 04:14:00,31.4,22.1,29.88,ESE,121,0.0,0.0,68,0.00,,,0.00,32767.00,ALWS 1.0-beta,2013-03-27 08:14:00,
2013-03-27 04:19:00,31.4,22.1,29.89,ESE,121,0.0,0.0,68,0.00,,,0.00,32767.00,ALWS 1.0-beta,2013-03-27 08:19:00,
2013-03-27 04:24:00,31.3,22.3,29.88,ESE,121,0.0,0.0,69,0.00,,,0.00,32767.00,ALWS 1.0-beta,2013-03-27 08:24:00,
2013-03-27 04:29:00,31.1,22.1,29.88,WSW,253,0.0,0.0,69,0.00,,,0.00,32767.00,ALWS 1.0-beta,2013-03-27 08:29:00,
2013-03-27 04:34:00,31.1,22.1,29.88,WSW,253,0.0,0.0,69,0.00,,,0.00,32767.00,ALWS 1.0-beta,2013-03-27 08:34:00,
2013-03-27 04:39:00,31.1,22.1,29.88,WSW,254,0.0,0.0,69,0.00,,,0.00,32767.00,ALWS 1.0-beta,2013-03-27 08:39:00,
2013-03-27 04:44:00,31.2,22.2,29.89,West,279,5.0,5.0,69,0.00,,,0.00,32767.00,ALWS 1.0-beta,2013-03-27 08:44:00,
2013-03-27 04:49:00,31.6,23.0,29.88,West,271,3.0,4.0,70,0.00,,,0.00,32767.00,ALWS 1.0-beta,2013-03-27 08:49:00,
2013-03-27 04:54:00,32.3,23.3,29.89,West,270,5.0,6.0,69,0.00,,,0.00,32767.00,ALWS 1.0-beta,2013-03-27 08:54:00,
2013-03-27 04:59:00,32.8,23.4,29.89,WNW,294,0.0,4.0,68,0.00,,,0.00,32767.00,ALWS 1.0-beta,2013-03-27 08:59:00,
2013-03-27 05:04:00,33.2,23.5,29.89,WNW,283,1.0,4.0,67,0.00,,,0.00,32767.00,ALWS 1.0-beta,2013-03-27 09:04:00,
2013-03-27 05:09:00,33.5,23.4,29.89,West,281,1.0,6.0,66,0.00,,,0.00,32767.00,ALWS 1.0-beta,2013-03-27 09:09:00,
2013-03-27 05:14:00,33.6,23.5,29.89,West,281,5.0,5.0,66,0.00,,,0.00,32767.00,ALWS 1.0-beta,2013-03-27 09:14:00,
2013-03-27 05:19:00,33.8,23.7,29.89,WNW,298,1.0,3.0,66,0.00,,,0.00,32767.00,ALWS 1.0-beta,2013-03-27 09:19:00,
2013-03-27 05:24:00,33.9,23.4,29.89,WNW,294,5.0,7.0,65,0.00,,,0.00,32767.00,ALWS 1.0-beta,2013-03-27 09:24:00,
2013-03-27 05:29:00,34.0,23.5,29.89,WNW,303,2.0,5.0,65,0.00,,,0.00,32767.00,ALWS 1.0-beta,2013-03-27 09:29:00,
2013-03-27 05:34:00,34.1,23.6,29.89,West,281,3.0,6.0,65,0.00,,,0.00,32767.00,ALWS 1.0-beta,2013-03-27 09:34:00,
2013-03-27 05:39:00,34.3,23.8,29.89,WSW,250,6.0,6.0,65,0.00,,,0.00,32767.00,ALWS 1.0-beta,2013-03-27 09:39:00,
2013-03-27 05:44:00,34.4,23.9,29.89,WNW,298,5.0,5.0,65,0.00,,,0.00,32767.00,ALWS 1.0-beta,2013-03-27 09:44:00,
2013-03-27 05:49:00,34.4,23.9,29.89,NW,315,1.0,1.0,65,0.00,,,0.00,32767.00,ALWS 1.0-beta,2013-03-27 09:49:00,
2013-03-27 05:54:00,34.4,23.9,29.89,West,278,7.0,7.0,65,0.00,,,0.00,32767.00,ALWS 1.0-beta,2013-03-27 09:54:00,
2013-03-27 05:59:00,34.4,23.9,29.89,WNW,300,3.0,3.0,65,0.00,,,0.00,32767.00,ALWS 1.0-beta,2013-03-27 09:59:00,
2013-03-27 06:04:00,34.4,24.2,29.89,WNW,291,2.0,8.0,66,0.00,,,0.00,32767.00,ALWS 1.0-beta,2013-03-27 10:04:00,
2013-03-27 06:09:00,34.4,24.2,29.89,WNW,294,5.0,5.0,66,0.00,,,0.00,32767.00,ALWS 1.0-beta,2013-03-27 10:09:00,
2013-03-27 06:14:00,34.5,24.3,29.89,WSW,248,7.0,9.0,66,0.00,,,0.00,32767.00,ALWS 1.0-beta,2013-03-27 10:14:00,
2013-03-27 06:19:00,34.6,24.8,29.89,West,264,5.0,5.0,67,0.00,,,0.00,32767.00,ALWS 1.0-beta,2013-03-27 10:19:00,
2013-03-27 06:24:00,34.6,24.8,29.89,WNW,285,2.0,5.0,67,0.00,,,0.00,32767.00,ALWS 1.0-beta,2013-03-27 10:24:00,
2013-03-27 06:29:00,34.6,24.8,29.89,NW,311,4.0,4.0,67,0.00,,,0.00,32767.00,ALWS 1.0-beta,2013-03-27 10:29:00,
2013-03-27 06:34:00,34.7,25.2,29.89,West,278,4.0,5.0,68,0.00,,,0.00,32767.00,ALWS 1.0-beta,2013-03-27 10:34:00,
2013-03-27 06:39:00,34.7,25.2,29.90,NW,306,5.0,8.0,68,0.00,,,0.00,32767.00,ALWS 1.0-beta,2013-03-27 10:39:00,
2013-03-27 06:44:00,34.8,25.3,29.90,WNW,284,6.0,9.0,68,0.00,,,0.00,32767.00,ALWS 1.0-beta,2013-03-27 10:44:00,
2013-03-27 06:49:00,34.9,25.4,29.90,West,277,4.0,4.0,68,0.00,,,0.00,32767.00,ALWS 1.0-beta,2013-03-27 10:49:00,
2013-03-27 06:54:00,34.9,25.4,29.91,WNW,298,4.0,6.0,68,0.00,,,0.00,32767.00,ALWS 1.0-beta,2013-03-27 10:54:00,
2013-03-27 06:59:00,35.0,25.9,29.91,NW,304,7.0,8.0,69,0.00,,,0.00,32767.00,ALWS 1.0-beta,2013-03-27 10:59:00,
2013-03-27 07:04:00,35.1,26.0,29.91,West,266,2.0,2.0,69,0.00,,,0.00,32767.00,ALWS 1.0-beta,2013-03-27 11:04:00,
2013-03-27 07:09:00,35.2,26.1,29.90,WNW,285,4.0,9.0,69,0.00,,,0.00,32767.00,ALWS 1.0-beta,2013-03-27 11:09:00,
2013-03-27 07:14:00,35.3,26.2,29.91,West,280,10.0,10.0,69,0.00,,,0.00,32767.00,ALWS 1.0-beta,2013-03-27 11:14:00,
2013-03-27 07:19:00,35.3,26.2,29.91,WNW,290,4.0,6.0,69,0.00,,,0.00,32767.00,ALWS 1.0-beta,2013-03-27 11:19:00,
2013-03-27 07:24:00,35.4,26.3,29.91,WNW,293,6.0,10.0,69,0.00,,,0.00,32767.00,ALWS 1.0-beta,2013-03-27 11:24:00,
2013-03-27 07:29:00,35.4,26.3,29.91,WNW,294,9.0,11.0,69,0.00,,,0.00,32767.00,ALWS 1.0-beta,2013-03-27 11:29:00,
2013-03-27 07:34:00,35.5,26.4,29.91,West,271,6.0,6.0,69,0.00,,,0.00,32767.00,ALWS 1.0-beta,2013-03-27 11:34:00,
2013-03-27 07:39:00,35.7,26.2,29.91,West,269,8.0,8.0,68,0.00,,,0.00,32767.00,ALWS 1.0-beta,2013-03-27 11:39:00,
2013-03-27 07:44:00,35.9,26.4,29.91,West,281,7.0,7.0,68,0.00,,,0.00,32767.00,ALWS 1.0-beta,2013-03-27 11:44:00,
2013-03-27 07:49:00,36.0,26.8,29.91,WNW,286,8.0,8.0,69,0.00,,,0.00,32767.00,ALWS 1.0-beta,2013-03-27 11:49:00,
2013-03-27 07:54:00,36.2,26.7,29.92,WNW,298,6.0,9.0,68,0.00,,,0.00,32767.00,ALWS 1.0-beta,2013-03-27 11:54:00,
2013-03-27 07:59:00,36.4,26.9,29.92,West,281,6.0,8.0,68,0.00,,,0.00,32767.00,ALWS 1.0-beta,2013-03-27 11:59:00,
2013-03-27 08:04:00,36.6,27.0,29.92,WNW,285,7.0,7.0,68,0.00,,,0.00,32767.00,ALWS 1.0-beta,2013-03-27 12:04:00,
2013-03-27 08:09:00,36.8,27.2,29.92,WNW,299,6.0,6.0,68,0.00,,,0.00,32767.00,ALWS 1.0-beta,2013-03-27 12:09:00,
2013-03-27 08:14:00,37.0,27.4,29.92,WNW,285,9.0,9.0,68,0.00,,,0.00,32767.00,ALWS 1.0-beta,2013-03-27 12:14:00,
2013-03-27 08:19:00,37.1,27.2,29.92,West,268,7.0,10.0,67,0.00,,,0.00,32767.00,ALWS 1.0-beta,2013-03-27 12:19:00,
2013-03-27 08:24:00,37.3,27.4,29.92,WNW,296,9.0,9.0,67,0.00,,,0.00,32767.00,ALWS 1.0-beta,2013-03-27 12:24:00,
2013-03-27 08:29:00,37.6,27.6,29.92,West,269,9.0,9.0,67,0.00,,,0.00,32767.00,ALWS 1.0-beta,2013-03-27 12:29:00,
2013-03-27 08:34:00,37.9,27.9,29.92,NNW,333,2.0,2.0,67,0.00,,,0.00,32767.00,ALWS 1.0-beta,2013-03-27 12:34:00,
2013-03-27 08:39:00,38.4,28.0,29.92,WSW,254,6.0,8.0,66,0.00,,,0.00,32767.00,ALWS 1.0-beta,2013-03-27 12:39:00,
2013-03-27 08:44:00,39.0,28.2,29.92,WNW,284,7.0,7.0,65,0.00,,,0.00,32767.00,ALWS 1.0-beta,2013-03-27 12:44:00,
2013-03-27 08:49:00,39.2,28.1,29.92,WNW,303,6.0,10.0,64,0.00,,,0.00,32767.00,ALWS 1.0-beta,2013-03-27 12:49:00,
2013-03-27 08:54:00,39.4,28.2,29.92,WNW,286,9.0,10.0,64,0.00,,,0.00,32767.00,ALWS 1.0-beta,2013-03-27 12:54:00,
2013-03-27 08:59:00,39.5,28.0,29.92,WNW,286,8.0,8.0,63,0.00,,,0.00,32767.00,ALWS 1.0-beta,2013-03-27 12:59:00,
2013-03-27 09:04:00,39.7,28.1,29.92,WNW,296,2.0,2.0,63,0.00,,,0.00,32767.00,ALWS 1.0-beta,2013-03-27 13:04:00,
2013-03-27 09:09:00,40.1,28.1,29.92,WNW,303,8.0,11.0,62,0.00,,,0.00,32767.00,ALWS 1.0-beta,2013-03-27 13:09:00,
2013-03-27 09:14:00,40.5,28.5,29.92,NW,306,5.0,7.0,62,0.00,,,0.00,32767.00,ALWS 1.0-beta,2013-03-27 13:14:00,
2013-03-27 09:19:00,40.7,28.7,29.92,WNW,302,5.0,10.0,62,0.00,,,0.00,32767.00,ALWS 1.0-beta,2013-03-27 13:19:00,
2013-03-27 09:24:00,40.9,28.9,29.92,WNW,295,4.0,6.0,62,0.00,,,0.00,32767.00,ALWS 1.0-beta,2013-03-27 13:24:00,
2013-03-27 09:29:00,41.2,29.2,29.92,West,277,5.0,5.0,62,0.00,,,0.00,32767.00,ALWS 1.0-beta,2013-03-27 13:29:00,
2013-03-27 09:34:00,41.3,28.5,29.92,NW,304,5.0,5.0,60,0.00,,,0.00,32767.00,ALWS 1.0-beta,2013-03-27 13:34:00,
2013-03-27 09:38:00,41.5,29.1,29.92,West,265,5.0,8.0,61,0.00,,,0.00,32767.00,ALWS 1.0-beta,2013-03-27 13:38:00,
2013-03-27 09:43:00,42.0,28.7,29.92,WSW,254,5.0,8.0,59,0.00,,,0.00,32767.00,ALWS 1.0-beta,2013-03-27 13:43:00,
2013-03-27 09:48:00,42.3,29.8,29.92,WNW,293,5.0,7.0,61,0.00,,,0.00,32767.00,ALWS 1.0-beta,2013-03-27 13:48:00,
2013-03-27 09:53:00,42.6,28.9,29.93,WNW,292,8.0,12.0,58,0.00,,,0.00,32767.00,ALWS 1.0-beta,2013-03-27 13:53:00,
2013-03-27 09:58:00,43.1,30.2,29.92,SW,230,0.0,5.0,60,0.00,,,0.00,32767.00,ALWS 1.0-beta,2013-03-27 13:58:00,
2013-03-27 10:03:00,43.4,29.2,29.93,West,272,11.0,11.0,57,0.00,,,0.00,32767.00,ALWS 1.0-beta,2013-03-27 14:03:00,
2013-03-27 10:08:00,42.8,28.6,29.93,West,272,8.0,10.0,57,0.00,,,0.00,32767.00,ALWS 1.0-beta,2013-03-27 14:08:00,
2013-03-27 10:13:00,42.3,28.2,29.93,NW,309,0.0,9.0,57,0.00,,,0.00,32767.00,ALWS 1.0-beta,2013-03-27 14:13:00,
2013-03-27 10:18:00,42.1,28.0,29.93,SW,234,6.0,6.0,57,0.00,,,0.00,32767.00,ALWS 1.0-beta,2013-03-27 14:18:00,
2013-03-27 10:23:00,42.2,28.5,29.93,NW,319,0.0,1.0,58,0.00,,,0.00,32767.00,ALWS 1.0-beta,2013-03-27 14:23:00,
2013-03-27 10:28:00,42.4,27.8,29.93,WNW,299,0.0,0.0,56,0.00,,,0.00,32767.00,ALWS 1.0-beta,2013-03-27 14:28:00,
2013-03-27 10:33:00,42.4,28.3,29.93,West,276,2.0,6.0,57,0.00,,,0.00,32767.00,ALWS 1.0-beta,2013-03-27 14:33:00,
2013-03-27 10:38:00,42.7,28.5,29.92,WSW,249,4.0,4.0,57,0.00,,,0.00,32767.00,ALWS 1.0-beta,2013-03-27 14:38:00,
2013-03-27 10:43:00,43.2,29.0,29.93,WNW,299,0.0,4.0,57,0.00,,,0.00,32767.00,ALWS 1.0-beta,2013-03-27 14:43:00,
2013-03-27 10:48:00,43.2,28.6,29.92,NNE,22,1.0,1.0,56,0.00,,,0.00,32767.00,ALWS 1.0-beta,2013-03-27 14:48:00,
2013-03-27 10:53:00,43.4,28.8,29.92,WSW,246,0.0,1.0,56,0.00,,,0.00,32767.00,ALWS 1.0-beta,2013-03-27 14:53:00,
2013-03-27 10:58:00,43.9,29.2,29.93,West,267,0.0,2.0,56,0.00,,,0.00,32767.00,ALWS 1.0-beta,2013-03-27 14:58:00,
2013-03-27 11:03:00,44.2,29.1,29.93,NE,51,6.0,8.0,55,0.00,,,0.00,32767.00,ALWS 1.0-beta,2013-03-27 15:03:00,
2013-03-27 11:08:00,43.9,28.4,29.93,NW,306,4.0,5.0,54,0.00,,,0.00,32767.00,ALWS 1.0-beta,2013-03-27 15:08:00,
2013-03-27 11:13:00,44.0,28.9,29.92,West,260,0.0,1.0,55,0.00,,,0.00,32767.00,ALWS 1.0-beta,2013-03-27 15:13:00,
2013-03-27 11:18:00,44.4,29.3,29.92,WSW,255,7.0,7.0,55,0.00,,,0.00,32767.00,ALWS 1.0-beta,2013-03-27 15:18:00,
2013-03-27 11:23:00,44.3,28.3,29.92,WNW,296,0.0,1.0,53,0.00,,,0.00,32767.00,ALWS 1.0-beta,2013-03-27 15:23:00,
2013-03-27 11:28:00,44.7,28.6,29.92,WNW,302,0.0,0.0,53,0.00,,,0.00,32767.00,ALWS 1.0-beta,2013-03-27 15:28:00,
2013-03-27 11:33:00,45.4,28.4,29.92,ESE,119,2.0,2.0,51,0.00,,,0.00,32767.00,ALWS 1.0-beta,2013-03-27 15:33:00,
2013-03-27 11:38:00,45.5,29.8,29.92,WNW,300,0.0,5.0,54,0.00,,,0.00,32767.00,ALWS 1.0-beta,2013-03-27 15:38:00,
2013-03-27 11:43:00,45.7,29.1,29.92,NW,304,11.0,13.0,52,0.00,,,0.00,32767.00,ALWS 1.0-beta,2013-03-27 15:43:00,
2013-03-27 11:48:00,45.4,28.4,29.92,WNW,294,5.0,6.0,51,0.00,,,0.00,32767.00,ALWS 1.0-beta,2013-03-27 15:48:00,
2013-03-27 11:53:00,46.0,28.9,29.92,NW,322,0.0,2.0,51,0.00,,,0.00,32767.00,ALWS 1.0-beta,2013-03-27 15:53:00,
2013-03-27 11:58:00,46.4,29.3,29.92,NNW,328,1.0,3.0,51,0.00,,,0.00,32767.00,ALWS 1.0-beta,2013-03-27 15:58:00,
2013-03-27 12:03:00,46.2,28.6,29.92,West,273,4.0,7.0,50,0.00,,,0.00,32767.00,ALWS 1.0-beta,2013-03-27 16:03:00,
2013-03-27 12:08:00,46.0,28.9,29.92,NW,307,0.0,1.0,51,0.00,,,0.00,32767.00,ALWS 1.0-beta,2013-03-27 16:08:00,
2013-03-27 12:13:00,46.9,28.2,29.91,WNW,299,1.0,8.0,48,0.00,,,0.00,32767.00,ALWS 1.0-beta,2013-03-27 16:13:00,
2013-03-27 12:18:00,47.2,28.0,29.91,WNW,295,7.0,12.0,47,0.00,,,0.00,32767.00,ALWS 1.0-beta,2013-03-27 16:18:00,
2013-03-27 12:23:00,47.8,29.1,29.91,WNW,294,8.0,8.0,48,0.00,,,0.00,32767.00,ALWS 1.0-beta,2013-03-27 16:23:00,
2013-03-27 12:28:00,47.9,28.1,29.91,NNW,343,4.0,4.0,46,0.00,,,0.00,32767.00,ALWS 1.0-beta,2013-03-27 16:28:00,
2013-03-27 12:33:00,48.6,28.8,29.91,WNW,300,6.0,8.0,46,0.00,,,0.00,32767.00,ALWS 1.0-beta,2013-03-27 16:33:00,
2013-03-27 12:38:00,48.1,27.8,29.91,WNW,296,2.0,5.0,45,0.00,,,0.00,32767.00,ALWS 1.0-beta,2013-03-27 16:38:00,
2013-03-27 12:43:00,48.1,28.3,29.91,WSW,245,11.0,11.0,46,0.00,,,0.00,32767.00,ALWS 1.0-beta,2013-03-27 16:43:00,
2013-03-27 12:48:00,49.1,28.1,29.91,WSW,238,7.0,7.0,44,0.00,,,0.00,32767.00,ALWS 1.0-beta,2013-03-27 16:48:00,
2013-03-27 12:53:00,49.3,27.8,29.91,West,281,6.0,12.0,43,0.00,,,0.00,32767.00,ALWS 1.0-beta,2013-03-27 16:53:00,
2013-03-27 12:58:00,49.7,29.8,29.90,WSW,251,11.0,11.0,46,0.00,,,0.00,32767.00,ALWS 1.0-beta,2013-03-27 16:58:00,
2013-03-27 13:03:00,49.5,29.6,29.91,WSW,244,4.0,4.0,46,0.00,,,0.00,32767.00,ALWS 1.0-beta,2013-03-27 17:03:00,
2013-03-27 13:08:00,49.4,27.3,29.91,West,268,3.0,5.0,42,0.00,,,0.00,32767.00,ALWS 1.0-beta,2013-03-27 17:08:00,
2013-03-27 13:13:00,48.7,27.2,29.90,NW,320,0.0,3.0,43,0.00,,,0.00,32767.00,ALWS 1.0-beta,2013-03-27 17:13:00,
2013-03-27 13:18:00,48.9,26.8,29.90,NW,322,6.0,8.0,42,0.00,,,0.00,32767.00,ALWS 1.0-beta,2013-03-27 17:18:00,
2013-03-27 13:23:00,48.5,26.5,29.90,WNW,303,2.0,6.0,42,0.00,,,0.00,32767.00,ALWS 1.0-beta,2013-03-27 17:23:00,
2013-03-27 13:28:00,48.7,26.6,29.90,NW,319,2.0,2.0,42,0.00,,,0.00,32767.00,ALWS 1.0-beta,2013-03-27 17:28:00,
2013-03-27 13:33:00,48.5,26.5,29.90,NW,313,4.0,4.0,42,0.00,,,0.00,32767.00,ALWS 1.0-beta,2013-03-27 17:33:00,
2013-03-27 13:38:00,48.2,25.6,29.90,WNW,300,6.0,6.0,41,0.00,,,0.00,32767.00,ALWS 1.0-beta,2013-03-27 17:38:00,
2013-03-27 13:43:00,47.9,26.5,29.89,WSW,252,5.0,5.0,43,0.00,,,0.00,32767.00,ALWS 1.0-beta,2013-03-27 17:43:00,
2013-03-27 13:48:00,48.3,25.7,29.89,NW,306,1.0,5.0,41,0.00,,,0.00,32767.00,ALWS 1.0-beta,2013-03-27 17:48:00,
2013-03-27 13:53:00,49.6,28.6,29.89,North,5,0.0,8.0,44,0.00,,,0.00,32767.00,ALWS 1.0-beta,2013-03-27 17:53:00,
2013-03-27 13:58:00,49.2,25.9,29.89,WNW,298,8.0,11.0,40,0.00,,,0.00,32767.00,ALWS 1.0-beta,2013-03-27 17:58:00,
2013-03-27 14:03:00,48.8,25.0,29.89,West,281,5.0,5.0,39,0.00,,,0.00,32767.00,ALWS 1.0-beta,2013-03-27 18:03:00,
2013-03-27 14:08:00,48.3,25.1,29.89,WNW,284,8.0,8.0,40,0.00,,,0.00,32767.00,ALWS 1.0-beta,2013-03-27 18:08:00,
2013-03-27 14:13:00,47.8,24.7,29.89,NW,321,5.0,11.0,40,0.00,,,0.00,32767.00,ALWS 1.0-beta,2013-03-27 18:13:00,
2013-03-27 14:18:00,48.1,26.1,29.89,WNW,286,6.0,6.0,42,0.00,,,0.00,32767.00,ALWS 1.0-beta,2013-03-27 18:18:00,
2013-03-27 14:23:00,48.3,26.3,29.89,WNW,292,7.0,9.0,42,0.00,,,0.00,32767.00,ALWS 1.0-beta,2013-03-27 18:23:00,
2013-03-27 14:28:00,50.2,26.8,29.89,West,265,7.0,7.0,40,0.00,,,0.00,32767.00,ALWS 1.0-beta,2013-03-27 18:28:00,
2013-03-27 14:33:00,51.2,27.1,29.88,West,271,10.0,10.0,39,0.00,,,0.00,32767.00,ALWS 1.0-beta,2013-03-27 18:33:00,
2013-03-27 14:38:00,51.8,27.6,29.88,WNW,299,5.0,8.0,39,0.00,,,0.00,32767.00,ALWS 1.0-beta,2013-03-27 18:38:00,
2013-03-27 14:43:00,51.4,26.7,29.88,NW,324,1.0,6.0,38,0.00,,,0.00,32767.00,ALWS 1.0-beta,2013-03-27 18:43:00,
2013-03-27 14:48:00,51.9,30.1,29.88,WNW,302,5.0,5.0,43,0.00,,,0.00,32767.00,ALWS 1.0-beta,2013-03-27 18:48:00,
2013-03-27 14:53:00,50.2,26.2,29.89,NW,310,7.0,7.0,39,0.00,,,0.00,32767.00,ALWS 1.0-beta,2013-03-27 18:53:00,
2013-03-27 14:58:00,48.9,26.2,29.89,NW,314,2.0,7.0,41,0.00,,,0.00,32767.00,ALWS 1.0-beta,2013-03-27 18:58:00,
2013-03-27 15:03:00,48.7,27.2,29.89,NW,314,0.0,1.0,43,0.00,,,0.00,32767.00,ALWS 1.0-beta,2013-03-27 19:03:00,
2013-03-27 15:08:00,50.6,28.4,29.89,NNW,348,4.0,4.0,42,0.00,,,0.00,32767.00,ALWS 1.0-beta,2013-03-27 19:08:00,
2013-03-27 15:13:00,51.2,26.5,29.89,West,271,8.0,8.0,38,0.00,,,0.00,32767.00,ALWS 1.0-beta,2013-03-27 19:13:00,
2013-03-27 15:18:00,50.6,30.1,29.89,West,267,8.0,11.0,45,0.00,,,0.00,32767.00,ALWS 1.0-beta,2013-03-27 19:18:00,
2013-03-27 15:23:00,49.5,29.6,29.90,West,276,10.0,16.0,46,0.00,,,0.00,32767.00,ALWS 1.0-beta,2013-03-27 19:23:00,
2013-03-27 15:28:00,48.2,30.5,29.89,West,269,6.0,9.0,50,0.00,,,0.00,32767.00,ALWS 1.0-beta,2013-03-27 19:28:00,
2013-03-27 15:33:00,48.4,30.1,29.89,WSW,246,12.0,12.0,49,0.00,,,0.00,32767.00,ALWS 1.0-beta,2013-03-27 19:33:00,
2013-03-27 15:38:00,49.0,30.7,29.90,NW,308,8.0,12.0,49,0.00,,,0.00,32767.00,ALWS 1.0-beta,2013-03-27 19:38:00,
2013-03-27 15:43:00,49.2,29.9,29.89,WNW,295,5.0,6.0,47,0.00,,,0.00,32767.00,ALWS 1.0-beta,2013-03-27 19:43:00,
2013-03-27 15:48:00,49.2,30.4,29.89,WSW,257,9.0,9.0,48,0.00,,,0.00,32767.00,ALWS 1.0-beta,2013-03-27 19:48:00,
2013-03-27 15:53:00,49.5,29.1,29.89,WNW,298,7.0,7.0,45,0.00,,,0.00,32767.00,ALWS 1.0-beta,2013-03-27 19:53:00,
2013-03-27 15:58:00,50.0,29.0,29.89,WNW,303,8.0,9.0,44,0.00,,,0.00,32767.00,ALWS 1.0-beta,2013-03-27 19:58:00,
2013-03-27 16:03:00,50.5,27.7,29.89,WNW,292,6.0,8.0,41,0.00,,,0.00,32767.00,ALWS 1.0-beta,2013-03-27 20:03:00,
2013-03-27 16:08:00,50.8,28.0,29.89,NNW,333,2.0,7.0,41,0.00,,,0.00,32767.00,ALWS 1.0-beta,2013-03-27 20:08:00,
2013-03-27 16:13:00,49.6,30.7,29.90,WNW,294,12.0,12.0,48,0.00,,,0.00,32767.00,ALWS 1.0-beta,2013-03-27 20:13:00,
2013-03-27 16:18:00,47.3,30.1,29.90,West,271,7.0,9.0,51,0.00,,,0.00,32767.00,ALWS 1.0-beta,2013-03-27 20:18:00,
2013-03-27 16:23:00,46.3,30.6,29.91,West,273,10.0,13.0,54,0.00,,,0.00,32767.00,ALWS 1.0-beta,2013-03-27 20:23:00,
2013-03-27 16:28:00,45.6,30.8,29.91,WNW,290,4.0,4.0,56,0.00,,,0.00,32767.00,ALWS 1.0-beta,2013-03-27 20:28:00,
2013-03-27 16:33:00,45.3,29.6,29.91,West,280,6.0,12.0,54,0.00,,,0.00,32767.00,ALWS 1.0-beta,2013-03-27 20:33:00,
2013-03-27 16:38:00,45.1,29.0,29.90,WSW,257,6.0,8.0,53,0.00,,,0.00,32767.00,ALWS 1.0-beta,2013-03-27 20:38:00,
2013-03-27 16:43:00,45.3,29.6,29.90,NW,309,4.0,6.0,54,0.00,,,0.00,32767.00,ALWS 1.0-beta,2013-03-27 20:43:00,
2013-03-27 16:48:00,45.7,29.6,29.90,West,278,0.0,4.0,53,0.00,,,0.00,32767.00,ALWS 1.0-beta,2013-03-27 20:48:00,
2013-03-27 16:53:00,46.9,30.7,29.90,WNW,295,5.0,5.0,53,0.00,,,0.00,32767.00,ALWS 1.0-beta,2013-03-27 20:53:00,
2013-03-27 16:58:00,47.8,30.6,29.90,NW,307,1.0,7.0,51,0.00,,,0.00,32767.00,ALWS 1.0-beta,2013-03-27 20:58:00,
2013-03-27 17:03:00,48.4,29.6,29.90,NW,314,2.0,6.0,48,0.00,,,0.00,32767.00,ALWS 1.0-beta,2013-03-27 21:03:00,
2013-03-27 17:09:00,48.5,29.2,29.90,West,267,4.0,4.0,47,0.00,,,0.00,32767.00,ALWS 1.0-beta,2013-03-27 21:09:00,
2013-03-27 17:14:00,49.0,29.1,29.90,WSW,255,2.0,6.0,46,0.00,,,0.00,32767.00,ALWS 1.0-beta,2013-03-27 21:14:00,
2013-03-27 17:19:00,48.8,29.0,29.90,NW,304,5.0,5.0,46,0.00,,,0.00,32767.00,ALWS 1.0-beta,2013-03-27 21:19:00,
2013-03-27 17:24:00,48.9,27.4,29.90,WNW,298,0.0,4.0,43,0.00,,,0.00,32767.00,ALWS 1.0-beta,2013-03-27 21:24:00,
2013-03-27 17:29:00,49.1,27.6,29.90,WNW,297,3.0,4.0,43,0.00,,,0.00,32767.00,ALWS 1.0-beta,2013-03-27 21:29:00,
2013-03-27 17:34:00,49.2,25.9,29.91,WNW,287,4.0,9.0,40,0.00,,,0.00,32767.00,ALWS 1.0-beta,2013-03-27 21:34:00,
2013-03-27 17:39:00,49.1,25.8,29.91,WNW,298,6.0,8.0,40,0.00,,,0.00,32767.00,ALWS 1.0-beta,2013-03-27 21:39:00,
2013-03-27 17:44:00,49.0,26.3,29.91,WNW,292,0.0,3.0,41,0.00,,,0.00,32767.00,ALWS 1.0-beta,2013-03-27 21:44:00,
2013-03-27 17:49:00,48.6,26.6,29.91,NW,313,1.0,6.0,42,0.00,,,0.00,32767.00,ALWS 1.0-beta,2013-03-27 21:49:00,
2013-03-27 17:54:00,47.8,28.0,29.92,NNE,30,4.0,9.0,46,0.00,,,0.00,32767.00,ALWS 1.0-beta,2013-03-27 21:54:00,
2013-03-27 17:59:00,46.9,28.2,29.92,North,349,1.0,1.0,48,0.00,,,0.00,32767.00,ALWS 1.0-beta,2013-03-27 21:59:00,
2013-03-27 18:04:00,46.3,28.7,29.92,North,360,0.0,1.0,50,0.00,,,0.00,32767.00,ALWS 1.0-beta,2013-03-27 22:04:00,
2013-03-27 18:09:00,46.0,27.4,29.92,NW,308,1.0,1.0,48,0.00,,,0.00,32767.00,ALWS 1.0-beta,2013-03-27 22:09:00,
2013-03-27 18:14:00,45.9,27.3,29.92,West,261,5.0,5.0,48,0.00,,,0.00,32767.00,ALWS 1.0-beta,2013-03-27 22:14:00,
2013-03-27 18:19:00,45.9,26.3,29.92,WNW,298,4.0,8.0,46,0.00,,,0.00,32767.00,ALWS 1.0-beta,2013-03-27 22:19:00,
2013-03-27 18:24:00,45.7,26.6,29.93,West,271,5.0,5.0,47,0.00,,,0.00,32767.00,ALWS 1.0-beta,2013-03-27 22:24:00,
2013-03-27 18:29:00,45.5,27.5,29.92,WNW,287,6.0,7.0,49,0.00,,,0.00,32767.00,ALWS 1.0-beta,2013-03-27 22:29:00,
2013-03-27 18:34:00,45.1,27.6,29.93,WNW,290,8.0,8.0,50,0.00,,,0.00,32767.00,ALWS 1.0-beta,2013-03-27 22:34:00,
2013-03-27 18:39:00,44.9,27.9,29.93,WNW,282,7.0,7.0,51,0.00,,,0.00,32767.00,ALWS 1.0-beta,2013-03-27 22:39:00,
2013-03-27 18:44:00,44.6,28.1,29.93,NW,306,11.0,11.0,52,0.00,,,0.00,32767.00,ALWS 1.0-beta,2013-03-27 22:44:00,
2013-03-27 18:49:00,44.3,27.8,29.93,WNW,283,3.0,7.0,52,0.00,,,0.00,32767.00,ALWS 1.0-beta,2013-03-27 22:49:00,
2013-03-27 18:54:00,44.1,28.1,29.93,WNW,296,9.0,9.0,53,0.00,,,0.00,32767.00,ALWS 1.0-beta,2013-03-27 22:54:00,
2013-03-27 18:59:00,43.8,28.2,29.94,WNW,288,7.0,12.0,54,0.00,,,0.00,32767.00,ALWS 1.0-beta,2013-03-27 22:59:00,
2013-03-27 19:04:00,43.6,28.5,29.94,West,275,11.0,11.0,55,0.00,,,0.00,32767.00,ALWS 1.0-beta,2013-03-27 23:04:00,
2013-03-27 19:09:00,43.3,28.2,29.94,WNW,296,1.0,3.0,55,0.00,,,0.00,32767.00,ALWS 1.0-beta,2013-03-27 23:09:00,
2013-03-27 19:14:00,42.9,28.3,29.94,West,260,1.0,6.0,56,0.00,,,0.00,32767.00,ALWS 1.0-beta,2013-03-27 23:14:00,
2013-03-27 19:19:00,42.7,28.5,29.94,NNW,346,2.0,5.0,57,0.00,,,0.00,32767.00,ALWS 1.0-beta,2013-03-27 23:19:00,
2013-03-27 19:24:00,42.4,28.3,29.94,WNW,290,3.0,6.0,57,0.00,,,0.00,32767.00,ALWS 1.0-beta,2013-03-27 23:24:00,
2013-03-27 19:29:00,42.3,28.2,29.94,NW,304,4.0,7.0,57,0.00,,,0.00,32767.00,ALWS 1.0-beta,2013-03-27 23:29:00,
2013-03-27 19:34:00,42.1,28.4,29.94,West,267,0.0,0.0,58,0.00,,,0.00,32767.00,ALWS 1.0-beta,2013-03-27 23:34:00,
2013-03-27 19:39:00,41.8,28.1,29.95,West,274,4.0,9.0,58,0.00,,,0.00,32767.00,ALWS 1.0-beta,2013-03-27 23:39:00,
2013-03-27 19:44:00,41.7,28.0,29.95,NW,316,0.0,1.0,58,0.00,,,0.00,32767.00,ALWS 1.0-beta,2013-03-27 23:44:00,
2013-03-27 19:49:00,41.5,28.3,29.95,WNW,292,1.0,4.0,59,0.00,,,0.00,32767.00,ALWS 1.0-beta,2013-03-27 23:49:00,
2013-03-27 19:54:00,41.4,28.2,29.95,WNW,288,1.0,8.0,59,0.00,,,0.00,32767.00,ALWS 1.0-beta,2013-03-27 23:54:00,
2013-03-27 19:59:00,41.3,28.1,29.95,SW,235,4.0,10.0,59,0.00,,,0.00,32767.00,ALWS 1.0-beta,2013-03-27 23:59:00,
2013-03-27 20:04:00,41.4,28.2,29.95,NW,313,1.0,4.0,59,0.00,,,0.00,32767.00,ALWS 1.0-beta,2013-03-28 00:04:00,
2013-03-27 20:09:00,41.4,28.2,29.96,West,273,1.0,1.0,59,0.00,,,0.00,32767.00,ALWS 1.0-beta,2013-03-28 00:09:00,
2013-03-27 20:14:00,41.4,28.2,29.96,WNW,291,0.0,4.0,59,0.00,,,0.00,32767.00,ALWS 1.0-beta,2013-03-28 00:14:00,
2013-03-27 20:19:00,41.4,28.2,29.97,NW,307,0.0,0.0,59,0.00,,,0.00,32767.00,ALWS 1.0-beta,2013-03-28 00:19:00,
2013-03-27 20:24:00,41.3,28.1,29.97,West,269,4.0,4.0,59,0.00,,,0.00,32767.00,ALWS 1.0-beta,2013-03-28 00:24:00,
2013-03-27 20:29:00,41.2,28.0,29.97,West,276,5.0,5.0,59,0.00,,,0.00,32767.00,ALWS 1.0-beta,2013-03-28 00:29:00,
2013-03-27 20:34:00,41.1,28.3,29.97,WNW,283,1.0,6.0,60,0.00,,,0.00,32767.00,ALWS 1.0-beta,2013-03-28 00:34:00,
2013-03-27 20:39:00,41.1,28.3,29.97,West,276,0.0,5.0,60,0.00,,,0.00,32767.00,ALWS 1.0-beta,2013-03-28 00:39:00,
2013-03-27 20:44:00,41.1,28.7,29.97,West,277,2.0,8.0,61,0.00,,,0.00,32767.00,ALWS 1.0-beta,2013-03-28 00:44:00,
2013-03-27 20:49:00,41.0,28.6,29.97,WNW,303,4.0,4.0,61,0.00,,,0.00,32767.00,ALWS 1.0-beta,2013-03-28 00:49:00,
2013-03-27 20:54:00,40.9,28.9,29.97,WSW,251,5.0,6.0,62,0.00,,,0.00,32767.00,ALWS 1.0-beta,2013-03-28 00:54:00,
2013-03-27 20:59:00,40.8,28.8,29.97,NW,313,1.0,5.0,62,0.00,,,0.00,32767.00,ALWS 1.0-beta,2013-03-28 00:59:00,
2013-03-27 21:04:00,40.7,28.7,29.98,West,272,0.0,0.0,62,0.00,,,0.00,32767.00,ALWS 1.0-beta,2013-03-28 01:04:00,
2013-03-27 21:09:00,40.6,28.6,29.98,SW,225,0.0,4.0,62,0.00,,,0.00,32767.00,ALWS 1.0-beta,2013-03-28 01:09:00,
2013-03-27 21:14:00,40.4,28.8,29.98,WSW,257,6.0,6.0,63,0.00,,,0.00,32767.00,ALWS 1.0-beta,2013-03-28 01:14:00,
2013-03-27 21:19:00,40.2,28.6,29.98,WSW,246,1.0,2.0,63,0.00,,,0.00,32767.00,ALWS 1.0-beta,2013-03-28 01:19:00,
2013-03-27 21:24:00,40.1,28.9,29.98,WSW,248,5.0,5.0,64,0.00,,,0.00,32767.00,ALWS 1.0-beta,2013-03-28 01:24:00,
2013-03-27 21:29:00,39.9,28.7,29.99,WNW,286,0.0,0.0,64,0.00,,,0.00,32767.00,ALWS 1.0-beta,2013-03-28 01:29:00,
2013-03-27 21:34:00,39.8,29.0,29.99,WSW,248,2.0,2.0,65,0.00,,,0.00,32767.00,ALWS 1.0-beta,2013-03-28 01:34:00,
2013-03-27 21:39:00,39.7,29.3,30.00,WSW,249,0.0,1.0,66,0.00,,,0.00,32767.00,ALWS 1.0-beta,2013-03-28 01:39:00,
2013-03-27 21:44:00,39.6,29.6,29.99,SW,222,3.0,6.0,67,0.00,,,0.00,32767.00,ALWS 1.0-beta,2013-03-28 01:44:00,
2013-03-27 21:49:00,39.6,29.6,30.00,WSW,239,4.0,5.0,67,0.00,,,0.00,32767.00,ALWS 1.0-beta,2013-03-28 01:49:00,
2013-03-27 21:54:00,39.6,29.6,30.00,SW,234,5.0,6.0,67,0.00,,,0.00,32767.00,ALWS 1.0-beta,2013-03-28 01:54:00,
2013-03-27 21:59:00,39.5,29.5,30.00,SW,234,0.0,0.0,67,0.00,,,0.00,32767.00,ALWS 1.0-beta,2013-03-28 01:59:00,
2013-03-27 22:04:00,39.3,29.3,30.00,SW,226,2.0,2.0,67,0.00,,,0.00,32767.00,ALWS 1.0-beta,2013-03-28 02:04:00,
2013-03-27 22:09:00,39.1,29.5,30.00,South,186,3.0,5.0,68,0.00,,,0.00,32767.00,ALWS 1.0-beta,2013-03-28 02:09:00,
2013-03-27 22:14:00,39.0,29.4,30.00,West,261,0.0,0.0,68,0.00,,,0.00,32767.00,ALWS 1.0-beta,2013-03-28 02:14:00,
2013-03-27 22:19:00,38.9,29.2,30.00,WSW,257,4.0,6.0,68,0.00,,,0.00,32767.00,ALWS 1.0-beta,2013-03-28 02:19:00,
2013-03-27 22:24:00,38.9,29.2,30.00,WNW,293,0.0,1.0,68,0.00,,,0.00,32767.00,ALWS 1.0-beta,2013-03-28 02:24:00,
2013-03-27 22:29:00,38.9,29.2,30.00,West,269,0.0,0.0,68,0.00,,,0.00,32767.00,ALWS 1.0-beta,2013-03-28 02:29:00,
2013-03-27 22:34:00,38.8,29.2,30.00,West,276,0.0,2.0,68,0.00,,,0.00,32767.00,ALWS 1.0-beta,2013-03-28 02:34:00,
2013-03-27 22:39:00,38.8,29.2,30.00,West,263,0.0,0.0,68,0.00,,,0.00,32767.00,ALWS 1.0-beta,2013-03-28 02:39:00,
2013-03-27 22:44:00,38.8,29.2,30.00,WNW,288,0.0,0.0,68,0.00,,,0.00,32767.00,ALWS 1.0-beta,2013-03-28 02:44:00,
2013-03-27 22:49:00,38.7,29.4,30.00,West,272,1.0,4.0,69,0.00,,,0.00,32767.00,ALWS 1.0-beta,2013-03-28 02:49:00,
2013-03-27 22:54:00,38.5,28.9,30.00,West,265,4.0,4.0,68,0.00,,,0.00,32767.00,ALWS 1.0-beta,2013-03-28 02:54:00,
2013-03-27 22:59:00,38.4,29.1,29.99,WNW,300,0.0,0.0,69,0.00,,,0.00,32767.00,ALWS 1.0-beta,2013-03-28 02:59:00,
2013-03-27 23:03:00,36.3,28.5,30.00,SSE,162,0.0,0.0,73,0.00,,,0.00,32767.00,ALWS 1.0-beta,2013-03-28 03:03:00,
2013-03-27 23:04:00,38.3,29.0,29.99,WNW,300,0.0,0.0,69,0.00,,,0.00,32767.00,ALWS 1.0-beta,2013-03-28 03:04:00,
2013-03-27 23:09:00,38.1,28.8,29.99,WNW,300,0.0,0.0,69,0.00,,,0.00,32767.00,ALWS 1.0-beta,2013-03-28 03:09:00,
2013-03-27 23:14:00,37.9,28.6,30.00,WNW,300,0.0,0.0,69,0.00,,,0.00,32767.00,ALWS 1.0-beta,2013-03-28 03:14:00,
2013-03-27 23:19:00,37.6,28.7,30.00,SW,236,0.0,0.0,70,0.00,,,0.00,32767.00,ALWS 1.0-beta,2013-03-28 03:19:00,
2013-03-27 23:24:00,37.4,28.5,30.00,SW,236,0.0,0.0,70,0.00,,,0.00,32767.00,ALWS 1.0-beta,2013-03-28 03:24:00,
2013-03-27 23:29:00,37.3,28.4,29.99,WSW,241,0.0,1.0,70,0.00,,,0.00,32767.00,ALWS 1.0-beta,2013-03-28 03:29:00,
2013-03-27 23:30:00,36.3,28.5,30.00,SSE,161,0.0,0.0,73,0.00,,,0.00,32767.00,ALWS 1.0-beta,2013-03-28 03:30:00,
2013-03-27 23:31:00,36.3,28.5,30.00,SSE,162,0.0,0.0,73,0.00,,,0.00,32767.00,ALWS 1.0-beta,2013-03-28 03:31:00,
2013-03-27 23:32:00,36.2,28.4,30.00,SSE,162,0.0,0.0,73,0.00,,,0.00,32767.00,ALWS 1.0-beta,2013-03-28 03:32:00,
2013-03-27 23:33:00,36.2,28.4,30.00,SSE,161,0.0,0.0,73,0.00,,,0.00,32767.00,ALWS 1.0-beta,2013-03-28 03:33:00,
2013-03-27 23:34:00,37.0,28.5,30.00,SW,228,5.0,5.0,71,0.00,,,0.00,32767.00,ALWS 1.0-beta,2013-03-28 03:34:00,
2013-03-27 23:35:00,36.1,28.3,30.00,SSE,161,0.0,0.0,73,0.00,,,0.00,32767.00,ALWS 1.0-beta,2013-03-28 03:35:00,
2013-03-27 23:39:00,36.9,28.4,29.99,SW,226,0.0,0.0,71,0.00,,,0.00,32767.00,ALWS 1.0-beta,2013-03-28 03:39:00,
2013-03-27 23:44:00,36.8,28.6,29.99,WSW,243,3.0,3.0,72,0.00,,,0.00,32767.00,ALWS 1.0-beta,2013-03-28 03:44:00,
2013-03-27 23:49:00,36.6,28.4,29.99,WSW,247,0.0,0.0,72,0.00,,,0.00,32767.00,ALWS 1.0-beta,2013-03-28 03:49:00,
2013-03-27 23:54:00,36.5,28.4,29.99,WSW,247,0.0,0.0,72,0.00,,,0.00,32767.00,ALWS 1.0-beta,2013-03-28 03:54:00,
2013-03-27 23:59:00,36.3,28.5,30.00,SSE,161,0.0,0.0,73,0.00,,,0.00,32767.00,ALWS 1.0-beta,2013-03-28 03:59:00,